TimeCEST,TemperatureF,Dew PointF,Humidity,Sea Level PressureIn,VisibilityMPH,Wind Direction,Wind SpeedMPH,Gust SpeedMPH,PrecipitationIn,Events,Conditions,WindDirDegrees,DateUTC
12:25 AM,55.4,53.6,94,29.83,6.2,South,3.5,-,N/A,,Overcast,190,2013-05-08 22:25:00
12:55 AM,55.4,53.6,94,29.83,6.2,SSW,4.6,-,N/A,,Overcast,210,2013-05-08 22:55:00
1:25 AM,55.4,51.8,88,29.83,6.2,SSW,4.6,-,N/A,,Partly Cloudy,210,2013-05-08 23:25:00
1:55 AM,55.4,51.8,88,29.83,6.2,SSW,4.6,-,N/A,,Overcast,200,2013-05-08 23:55:00
2:15 AM,55.4,51.8,88,29.83,6.2,SW,8.1,-,N/A,,Overcast,230,2013-05-09 00:15:00
2:25 AM,55.4,51.8,88,29.83,6.2,SW,8.1,-,N/A,,Overcast,220,2013-05-09 00:25:00
2:51 AM,55.4,51.8,88,29.86,6.2,SW,9.2,-,N/A,,Overcast,230,2013-05-09 00:51:00
2:55 AM,55.4,51.8,88,29.86,6.2,SW,9.2,-,N/A,,Overcast,230,2013-05-09 00:55:00
3:05 AM,55.4,51.8,88,29.86,6.2,SW,10.4,-,N/A,,Overcast,230,2013-05-09 01:05:00
3:12 AM,55.4,51.8,88,29.86,6.2,SW,10.4,-,N/A,,Overcast,230,2013-05-09 01:12:00
3:25 AM,55.4,51.8,88,29.86,6.2,SW,9.2,-,N/A,,Overcast,230,2013-05-09 01:25:00
3:35 AM,55.4,51.8,88,29.86,6.2,SW,9.2,-,N/A,,Overcast,230,2013-05-09 01:35:00
3:45 AM,55.4,51.8,88,29.86,6.2,SW,8.1,-,N/A,,Mostly Cloudy,220,2013-05-09 01:45:00
3:55 AM,55.4,51.8,88,29.86,6.2,SW,9.2,-,N/A,,Mostly Cloudy,220,2013-05-09 01:55:00
4:08 AM,55.4,51.8,88,29.86,6.2,SW,11.5,-,N/A,Rain,Light Drizzle,230,2013-05-09 02:08:00
4:12 AM,55.4,50.0,82,29.86,6.2,SW,13.8,-,N/A,,Light Drizzle,230,2013-05-09 02:12:00
4:16 AM,53.6,50.0,88,29.86,6.2,WSW,12.7,-,N/A,,Light Drizzle,240,2013-05-09 02:16:00
4:17 AM,53.6,50.0,88,29.86,6.2,WSW,10.4,-,N/A,,Light Drizzle,240,2013-05-09 02:17:00
4:25 AM,53.6,50.0,88,29.86,6.2,SW,9.2,-,N/A,,Overcast,230,2013-05-09 02:25:00
4:26 AM,53.6,50.0,88,29.86,6.2,SW,9.2,-,N/A,,Mostly Cloudy,230,2013-05-09 02:26:00
4:33 AM,53.6,51.8,94,29.86,6.2,SW,9.2,-,N/A,,Overcast,230,2013-05-09 02:33:00
4:47 AM,53.6,51.8,94,29.86,6.2,SW,10.4,-,N/A,,Overcast,230,2013-05-09 02:47:00
4:55 AM,53.6,50.0,88,29.86,6.2,SW,11.5,-,N/A,,Overcast,230,2013-05-09 02:55:00
5:25 AM,53.6,50.0,88,29.86,6.2,SW,9.2,-,N/A,,Overcast,230,2013-05-09 03:25:00
5:41 AM,53.6,48.2,82,29.86,6.2,SW,10.4,-,N/A,,Overcast,230,2013-05-09 03:41:00
5:50 AM,53.6,48.2,82,29.86,6.2,SW,11.5,-,N/A,,Overcast,230,2013-05-09 03:50:00
5:55 AM,51.8,48.2,88,29.86,6.2,SW,11.5,-,N/A,,Overcast,230,2013-05-09 03:55:00
6:00 AM,51.8,46.4,82,29.89,6.2,SW,9.2,-,N/A,,Mostly Cloudy,230,2013-05-09 04:00:00
6:10 AM,51.8,46.4,82,29.89,6.2,WSW,10.4,-,N/A,,Mostly Cloudy,240,2013-05-09 04:10:00
6:25 AM,51.8,46.4,82,29.89,6.2,WSW,10.4,-,N/A,,Mostly Cloudy,240,2013-05-09 04:25:00
6:26 AM,51.8,46.4,82,29.89,6.2,WSW,11.5,-,N/A,,Mostly Cloudy,240,2013-05-09 04:26:00
6:33 AM,51.8,46.4,82,29.89,6.2,SW,11.5,-,N/A,,Mostly Cloudy,230,2013-05-09 04:33:00
6:40 AM,51.8,46.4,82,29.89,6.2,SW,10.4,-,N/A,,Mostly Cloudy,230,2013-05-09 04:40:00
6:43 AM,51.8,46.4,82,29.89,6.2,SW,10.4,-,N/A,,Mostly Cloudy,230,2013-05-09 04:43:00
6:50 AM,51.8,46.4,82,29.89,6.2,SW,10.4,-,N/A,,Scattered Clouds,230,2013-05-09 04:50:00
6:55 AM,51.8,46.4,82,29.89,6.2,SW,11.5,-,N/A,,Mostly Cloudy,230,2013-05-09 04:55:00
7:13 AM,50.0,44.6,82,29.89,6.2,SW,12.7,-,N/A,,Mostly Cloudy,230,2013-05-09 05:13:00
7:14 AM,50.0,44.6,82,29.89,6.2,SW,12.7,-,N/A,,Mostly Cloudy,230,2013-05-09 05:14:00
7:21 AM,50.0,44.6,82,29.89,6.2,SW,13.8,-,N/A,,Mostly Cloudy,230,2013-05-09 05:21:00
7:25 AM,50.0,46.4,87,29.92,6.2,WSW,11.5,-,N/A,,Mostly Cloudy,240,2013-05-09 05:25:00
7:55 AM,50.0,44.6,82,29.92,6.2,SW,13.8,-,N/A,,Overcast,230,2013-05-09 05:55:00
8:25 AM,50.0,44.6,82,29.92,6.2,SW,13.8,-,N/A,,Scattered Clouds,230,2013-05-09 06:25:00
8:26 AM,50.0,44.6,82,29.92,6.2,SW,13.8,-,N/A,,Partly Cloudy,230,2013-05-09 06:26:00
8:55 AM,51.8,44.6,76,29.92,6.2,WSW,15.0,-,N/A,,Partly Cloudy,240,2013-05-09 06:55:00
9:25 AM,51.8,42.8,71,29.92,6.2,WSW,15.0,-,N/A,,Unknown,240,2013-05-09 07:25:00
9:55 AM,55.4,42.8,63,29.92,6.2,SW,12.7,-,N/A,,Partly Cloudy,230,2013-05-09 07:55:00
10:25 AM,53.6,39.2,58,29.92,6.2,SW,15.0,-,N/A,,Unknown,230,2013-05-09 08:25:00
10:55 AM,55.4,41.0,58,29.92,6.2,WSW,15.0,-,N/A,,Unknown,250,2013-05-09 08:55:00
11:25 AM,57.2,41.0,55,29.92,6.2,WSW,16.1,-,N/A,,Scattered Clouds,250,2013-05-09 09:25:00
11:55 AM,57.2,41.0,55,29.92,6.2,WSW,16.1,-,N/A,,Unknown,240,2013-05-09 09:55:00
12:25 PM,57.2,37.4,48,29.92,6.2,WSW,12.7,-,N/A,,Partly Cloudy,240,2013-05-09 10:25:00
12:55 PM,57.2,37.4,48,29.92,6.2,WSW,16.1,27.6,N/A,,Scattered Clouds,240,2013-05-09 10:55:00
1:25 PM,59.0,35.6,42,29.92,6.2,SW,13.8,-,N/A,,Scattered Clouds,220,2013-05-09 11:25:00
1:55 PM,59.0,35.6,42,29.92,6.2,SW,16.1,-,N/A,,Scattered Clouds,230,2013-05-09 11:55:00
2:25 PM,60.8,37.4,42,29.89,6.2,WSW,12.7,-,N/A,,Mostly Cloudy,240,2013-05-09 12:25:00
2:55 PM,62.6,35.6,37,29.89,6.2,WSW,13.8,-,N/A,,Scattered Clouds,240,2013-05-09 12:55:00
3:25 PM,60.8,37.4,42,29.89,6.2,WSW,13.8,-,N/A,,Mostly Cloudy,240,2013-05-09 13:25:00
3:55 PM,59.0,37.4,45,29.89,6.2,SSW,11.5,-,N/A,,Mostly Cloudy,210,2013-05-09 13:55:00
4:25 PM,60.8,37.4,42,29.89,6.2,SW,13.8,-,N/A,,Mostly Cloudy,220,2013-05-09 14:25:00
4:55 PM,62.6,39.2,42,29.89,6.2,WSW,16.1,-,N/A,,Mostly Cloudy,250,2013-05-09 14:55:00
5:25 PM,59.0,37.4,45,29.86,6.2,WSW,11.5,-,N/A,,Overcast,240,2013-05-09 15:25:00
5:55 PM,60.8,39.2,45,29.86,6.2,WSW,12.7,-,N/A,,Mostly Cloudy,240,2013-05-09 15:55:00
6:25 PM,60.8,37.4,42,29.86,6.2,SW,16.1,-,N/A,,Scattered Clouds,230,2013-05-09 16:25:00
6:55 PM,59.0,37.4,45,29.86,6.2,SSW,9.2,-,N/A,,Scattered Clouds,210,2013-05-09 16:55:00
7:25 PM,59.0,37.4,45,29.86,6.2,SW,10.4,-,N/A,,Unknown,220,2013-05-09 17:25:00
7:55 PM,59.0,37.4,45,29.86,6.2,SW,9.2,-,N/A,,Scattered Clouds,230,2013-05-09 17:55:00
8:25 PM,59.0,37.4,45,29.86,6.2,SW,8.1,-,N/A,,Partly Cloudy,220,2013-05-09 18:25:00
8:55 PM,57.2,37.4,48,29.86,6.2,SW,9.2,-,N/A,,Unknown,220,2013-05-09 18:55:00
9:25 PM,57.2,37.4,48,29.86,6.2,SSW,5.8,-,N/A,,Unknown,210,2013-05-09 19:25:00
9:55 PM,55.4,37.4,51,29.86,6.2,South,5.8,-,N/A,,Unknown,190,2013-05-09 19:55:00
10:25 PM,55.4,39.2,54,29.86,6.2,South,5.8,-,N/A,,Partly Cloudy,190,2013-05-09 20:25:00
10:55 PM,57.2,39.2,51,29.86,6.2,South,8.1,-,N/A,,Overcast,190,2013-05-09 20:55:00
11:25 PM,55.4,39.2,54,29.83,6.2,South,6.9,-,N/A,,Unknown,190,2013-05-09 21:25:00
11:55 PM,57.2,41.0,55,29.83,6.2,SSW,9.2,-,N/A,,Overcast,210,2013-05-09 21:55:00